CheckWX is a tool to help pilots better visualize weather data.  It is not intended as a substitute for an official pre-flight weather briefing.

17:06:36 UTC

FJDG METAR
Diego Garcia NSF Airport
Camp Justice, British Indian Ocean Territory
Current

12 mins ago

FJDG 221655Z 32015KT 9000 -TSRA SCT015CB BKN045 OVC070 26/25 A2968 RMK OCNL LTGCGCC OVHD TS MOV SE T1 SET SLP048 P0011 T02630254
Observed
Jul-22 @ 16:55 UTC
Wind
  • 320° at 15 KTS
Visibility
9,000 meters
Flight Rules
VFR
Conditions
Light Thunderstorm, Light Rain
Cloud Levels
  • Scattered at 1,500' AGL
  • Broken at 4,500' AGL
  • Overcast at 7,000' AGL
Temperature
26°C / 79°F
Dewpoint
25°C / 77°F
Humidity
94%
Altimeter
29.68" Hg
Pressure
1005.12 hPa
Current Rain
0.11"
Previous

49 mins ago

FJDG 221618Z 32016KT 9000 -TSRA SCT015CB BKN045 OVC070 26/25 A2967 RMK OCNL LTGCGCC OVHD TS MOV SE T1 SET SLP044
Observed
Jul-22 @ 16:18 UTC
Wind
  • 320° at 16 KTS
Visibility
9,000 meters
Flight Rules
VFR
Conditions
Light Thunderstorm, Light Rain
Cloud Levels
  • Scattered at 1,500' AGL
  • Broken at 4,500' AGL
  • Overcast at 7,000' AGL
Temperature
26°C / 79°F
Dewpoint
25°C / 77°F
Humidity
94%
Altimeter
29.67" Hg
Pressure
1004.72 hPa
Previous

1 hour ago

FJDG 221555Z 32011KT 9000 -SHRA SCT017 BKN050 OVC080 26/25 A2967 RMK SLP044 P0003 T02610250
Observed
Jul-22 @ 15:55 UTC
Wind
  • 320° at 11 KTS
Visibility
9,000 meters
Flight Rules
VFR
Conditions
Light Rain
Cloud Levels
  • Scattered at 1,700' AGL
  • Broken at 5,000' AGL
  • Overcast at 8,000' AGL
Temperature
26°C / 79°F
Dewpoint
25°C / 77°F
Humidity
94%
Altimeter
29.67" Hg
Pressure
1004.72 hPa
Current Rain
0.03"